sensor_id;sensor_type;location;lat;lon;timestamp;P1;durP1;ratioP1;P2;durP2;ratioP2
81191;SDS011;70665;47.652;-2.730;2024-02-16T00:03:43;12.65;;;4.43;;
81191;SDS011;70665;47.652;-2.730;2024-02-16T00:08:35;23.00;;;4.80;;
81191;SDS011;70665;47.652;-2.730;2024-02-16T00:11:03;22.13;;;4.78;;
81191;SDS011;70665;47.652;-2.730;2024-02-16T00:13:30;29.92;;;5.88;;
81191;SDS011;70665;47.652;-2.730;2024-02-16T00:15:55;22.35;;;5.82;;
81191;SDS011;70665;47.652;-2.730;2024-02-16T00:18:22;29.73;;;8.18;;
81191;SDS011;70665;47.652;-2.730;2024-02-16T00:20:48;26.70;;;7.00;;
81191;SDS011;70665;47.652;-2.730;2024-02-16T00:23:13;22.65;;;6.18;;
81191;SDS011;70665;47.652;-2.730;2024-02-16T00:28:05;22.10;;;7.40;;
81191;SDS011;70665;47.652;-2.730;2024-02-16T00:30:31;19.25;;;5.85;;
81191;SDS011;70665;47.652;-2.730;2024-02-16T00:35:22;25.70;;;8.10;;
81191;SDS011;70665;47.652;-2.730;2024-02-16T00:40:13;24.40;;;6.32;;
81191;SDS011;70665;47.652;-2.730;2024-02-16T00:45:05;22.50;;;5.60;;
81191;SDS011;70665;47.652;-2.730;2024-02-16T00:49:58;22.52;;;5.80;;
81191;SDS011;70665;47.652;-2.730;2024-02-16T00:52:23;27.88;;;5.53;;
81191;SDS011;70665;47.652;-2.730;2024-02-16T00:54:49;20.48;;;6.20;;
81191;SDS011;70665;47.652;-2.730;2024-02-16T00:57:15;20.90;;;4.85;;
81191;SDS011;70665;47.652;-2.730;2024-02-16T00:59:41;25.88;;;5.07;;
81191;SDS011;70665;47.652;-2.730;2024-02-16T01:02:07;25.05;;;6.22;;
81191;SDS011;70665;47.652;-2.730;2024-02-16T01:04:34;19.80;;;5.65;;
81191;SDS011;70665;47.652;-2.730;2024-02-16T01:09:25;17.70;;;4.82;;
81191;SDS011;70665;47.652;-2.730;2024-02-16T01:11:52;25.02;;;6.32;;
81191;SDS011;70665;47.652;-2.730;2024-02-16T01:14:17;20.80;;;6.50;;
81191;SDS011;70665;47.652;-2.730;2024-02-16T01:16:46;25.35;;;6.10;;
81191;SDS011;70665;47.652;-2.730;2024-02-16T01:19:12;25.60;;;5.70;;
81191;SDS011;70665;47.652;-2.730;2024-02-16T01:21:37;25.05;;;6.00;;
81191;SDS011;70665;47.652;-2.730;2024-02-16T01:26:29;17.33;;;5.30;;
81191;SDS011;70665;47.652;-2.730;2024-02-16T01:28:56;19.30;;;4.75;;
81191;SDS011;70665;47.652;-2.730;2024-02-16T01:31:23;19.90;;;5.32;;
81191;SDS011;70665;47.652;-2.730;2024-02-16T01:33:48;18.85;;;5.55;;
81191;SDS011;70665;47.652;-2.730;2024-02-16T01:38:39;11.52;;;4.22;;
81191;SDS011;70665;47.652;-2.730;2024-02-16T01:41:05;12.10;;;4.40;;
81191;SDS011;70665;47.652;-2.730;2024-02-16T01:43:32;13.10;;;4.63;;
81191;SDS011;70665;47.652;-2.730;2024-02-16T01:45:58;15.85;;;3.70;;
81191;SDS011;70665;47.652;-2.730;2024-02-16T01:48:24;10.52;;;3.47;;
81191;SDS011;70665;47.652;-2.730;2024-02-16T01:50:53;9.13;;;3.80;;
81191;SDS011;70665;47.652;-2.730;2024-02-16T01:53:19;9.23;;;2.80;;
81191;SDS011;70665;47.652;-2.730;2024-02-16T01:55:46;9.93;;;2.17;;
81191;SDS011;70665;47.652;-2.730;2024-02-16T01:58:12;7.38;;;2.88;;
81191;SDS011;70665;47.652;-2.730;2024-02-16T02:00:37;6.32;;;2.17;;
81191;SDS011;70665;47.652;-2.730;2024-02-16T02:03:04;3.90;;;1.67;;
81191;SDS011;70665;47.652;-2.730;2024-02-16T02:05:31;4.18;;;2.10;;
81191;SDS011;70665;47.652;-2.730;2024-02-16T02:07:58;6.63;;;2.30;;
81191;SDS011;70665;47.652;-2.730;2024-02-16T02:10:23;6.53;;;1.70;;
81191;SDS011;70665;47.652;-2.730;2024-02-16T02:12:49;3.70;;;1.55;;
81191;SDS011;70665;47.652;-2.730;2024-02-16T02:15:14;3.47;;;1.75;;
81191;SDS011;70665;47.652;-2.730;2024-02-16T02:17:40;3.30;;;1.20;;
81191;SDS011;70665;47.652;-2.730;2024-02-16T02:22:36;2.30;;;1.20;;
81191;SDS011;70665;47.652;-2.730;2024-02-16T02:25:03;1.88;;;1.10;;
81191;SDS011;70665;47.652;-2.730;2024-02-16T02:27:30;1.20;;;0.80;;
81191;SDS011;70665;47.652;-2.730;2024-02-16T02:29:56;1.13;;;0.70;;
81191;SDS011;70665;47.652;-2.730;2024-02-16T02:32:21;1.60;;;0.70;;
81191;SDS011;70665;47.652;-2.730;2024-02-16T02:34:47;0.65;;;0.60;;
81191;SDS011;70665;47.652;-2.730;2024-02-16T02:37:13;3.13;;;0.90;;
81191;SDS011;70665;47.652;-2.730;2024-02-16T02:39:38;1.85;;;0.68;;
81191;SDS011;70665;47.652;-2.730;2024-02-16T02:42:05;2.55;;;0.88;;
81191;SDS011;70665;47.652;-2.730;2024-02-16T02:44:31;0.95;;;0.70;;
81191;SDS011;70665;47.652;-2.730;2024-02-16T02:46:57;2.13;;;0.70;;
81191;SDS011;70665;47.652;-2.730;2024-02-16T02:49:23;1.10;;;0.52;;
81191;SDS011;70665;47.652;-2.730;2024-02-16T02:51:48;1.02;;;0.80;;
81191;SDS011;70665;47.652;-2.730;2024-02-16T02:54:14;2.00;;;0.98;;
81191;SDS011;70665;47.652;-2.730;2024-02-16T02:56:40;2.80;;;0.70;;
81191;SDS011;70665;47.652;-2.730;2024-02-16T02:59:05;2.53;;;0.75;;
81191;SDS011;70665;47.652;-2.730;2024-02-16T03:01:31;1.88;;;0.75;;
81191;SDS011;70665;47.652;-2.730;2024-02-16T03:03:57;1.42;;;0.80;;
81191;SDS011;70665;47.652;-2.730;2024-02-16T03:06:25;2.22;;;0.80;;
81191;SDS011;70665;47.652;-2.730;2024-02-16T03:08:50;1.90;;;0.95;;
81191;SDS011;70665;47.652;-2.730;2024-02-16T03:11:16;1.30;;;0.70;;
81191;SDS011;70665;47.652;-2.730;2024-02-16T03:13:42;2.50;;;0.93;;
81191;SDS011;70665;47.652;-2.730;2024-02-16T03:16:08;1.70;;;0.82;;
81191;SDS011;70665;47.652;-2.730;2024-02-16T03:18:33;3.05;;;0.93;;
81191;SDS011;70665;47.652;-2.730;2024-02-16T03:20:59;3.28;;;1.02;;
81191;SDS011;70665;47.652;-2.730;2024-02-16T03:25:51;6.53;;;1.23;;
81191;SDS011;70665;47.652;-2.730;2024-02-16T03:28:16;2.53;;;0.68;;
81191;SDS011;70665;47.652;-2.730;2024-02-16T03:30:43;1.08;;;0.73;;
81191;SDS011;70665;47.652;-2.730;2024-02-16T03:33:09;1.48;;;0.80;;
81191;SDS011;70665;47.652;-2.730;2024-02-16T03:35:36;1.90;;;1.00;;
81191;SDS011;70665;47.652;-2.730;2024-02-16T03:38:05;2.55;;;0.90;;
81191;SDS011;70665;47.652;-2.730;2024-02-16T03:40:31;1.75;;;1.02;;
81191;SDS011;70665;47.652;-2.730;2024-02-16T03:42:57;1.58;;;0.90;;
81191;SDS011;70665;47.652;-2.730;2024-02-16T03:47:49;6.43;;;0.95;;
81191;SDS011;70665;47.652;-2.730;2024-02-16T03:50:17;3.10;;;0.93;;
81191;SDS011;70665;47.652;-2.730;2024-02-16T03:52:43;3.83;;;1.15;;
81191;SDS011;70665;47.652;-2.730;2024-02-16T03:55:09;2.83;;;0.90;;
81191;SDS011;70665;47.652;-2.730;2024-02-16T03:57:35;2.22;;;1.00;;
81191;SDS011;70665;47.652;-2.730;2024-02-16T04:00:01;3.10;;;1.02;;
81191;SDS011;70665;47.652;-2.730;2024-02-16T04:02:27;2.55;;;0.90;;
81191;SDS011;70665;47.652;-2.730;2024-02-16T04:04:53;4.28;;;1.33;;
81191;SDS011;70665;47.652;-2.730;2024-02-16T04:07:18;2.47;;;0.90;;
81191;SDS011;70665;47.652;-2.730;2024-02-16T04:09:44;2.45;;;0.90;;
81191;SDS011;70665;47.652;-2.730;2024-02-16T04:12:10;4.00;;;1.38;;
81191;SDS011;70665;47.652;-2.730;2024-02-16T04:14:35;3.63;;;1.20;;
81191;SDS011;70665;47.652;-2.730;2024-02-16T04:17:01;2.78;;;1.23;;
81191;SDS011;70665;47.652;-2.730;2024-02-16T04:19:27;4.55;;;1.20;;
81191;SDS011;70665;47.652;-2.730;2024-02-16T04:21:53;4.25;;;1.23;;
81191;SDS011;70665;47.652;-2.730;2024-02-16T04:26:45;3.35;;;1.10;;
81191;SDS011;70665;47.652;-2.730;2024-02-16T04:29:10;3.97;;;1.00;;
81191;SDS011;70665;47.652;-2.730;2024-02-16T04:31:39;3.15;;;1.10;;
81191;SDS011;70665;47.652;-2.730;2024-02-16T04:34:07;4.30;;;1.20;;
81191;SDS011;70665;47.652;-2.730;2024-02-16T04:36:35;5.78;;;1.27;;
81191;SDS011;70665;47.652;-2.730;2024-02-16T04:39:01;4.57;;;1.20;;
81191;SDS011;70665;47.652;-2.730;2024-02-16T04:41:27;5.78;;;1.25;;
81191;SDS011;70665;47.652;-2.730;2024-02-16T04:43:53;4.50;;;1.40;;
81191;SDS011;70665;47.652;-2.730;2024-02-16T04:46:18;5.45;;;1.00;;
81191;SDS011;70665;47.652;-2.730;2024-02-16T04:48:44;5.13;;;1.25;;
81191;SDS011;70665;47.652;-2.730;2024-02-16T04:51:10;4.72;;;0.93;;
81191;SDS011;70665;47.652;-2.730;2024-02-16T04:53:36;7.60;;;1.58;;
81191;SDS011;70665;47.652;-2.730;2024-02-16T04:56:02;5.00;;;1.10;;
81191;SDS011;70665;47.652;-2.730;2024-02-16T04:58:28;4.20;;;0.93;;
81191;SDS011;70665;47.652;-2.730;2024-02-16T05:00:54;7.55;;;1.50;;
81191;SDS011;70665;47.652;-2.730;2024-02-16T05:03:19;6.00;;;1.27;;
81191;SDS011;70665;47.652;-2.730;2024-02-16T05:05:45;2.90;;;1.17;;
81191;SDS011;70665;47.652;-2.730;2024-02-16T05:08:11;8.10;;;1.88;;
81191;SDS011;70665;47.652;-2.730;2024-02-16T05:10:37;5.82;;;1.10;;
81191;SDS011;70665;47.652;-2.730;2024-02-16T05:13:02;5.20;;;1.38;;
81191;SDS011;70665;47.652;-2.730;2024-02-16T05:15:28;1.38;;;0.85;;
81191;SDS011;70665;47.652;-2.730;2024-02-16T05:17:54;5.63;;;1.38;;
81191;SDS011;70665;47.652;-2.730;2024-02-16T05:20:20;5.35;;;0.77;;
81191;SDS011;70665;47.652;-2.730;2024-02-16T05:22:46;4.97;;;1.00;;
81191;SDS011;70665;47.652;-2.730;2024-02-16T05:25:12;5.65;;;2.00;;
81191;SDS011;70665;47.652;-2.730;2024-02-16T05:27:38;5.07;;;1.33;;
81191;SDS011;70665;47.652;-2.730;2024-02-16T05:30:04;8.15;;;1.00;;
81191;SDS011;70665;47.652;-2.730;2024-02-16T05:32:35;8.07;;;1.27;;
81191;SDS011;70665;47.652;-2.730;2024-02-16T05:35:03;7.90;;;2.00;;
81191;SDS011;70665;47.652;-2.730;2024-02-16T05:37:30;6.22;;;1.40;;
81191;SDS011;70665;47.652;-2.730;2024-02-16T05:39:57;11.20;;;1.55;;
81191;SDS011;70665;47.652;-2.730;2024-02-16T05:42:33;10.40;;;1.27;;
81191;SDS011;70665;47.652;-2.730;2024-02-16T05:44:59;5.85;;;1.38;;
81191;SDS011;70665;47.652;-2.730;2024-02-16T05:47:25;7.82;;;1.50;;
81191;SDS011;70665;47.652;-2.730;2024-02-16T05:49:51;7.72;;;1.33;;
81191;SDS011;70665;47.652;-2.730;2024-02-16T05:52:16;10.02;;;1.30;;
81191;SDS011;70665;47.652;-2.730;2024-02-16T05:54:43;9.90;;;1.30;;
81191;SDS011;70665;47.652;-2.730;2024-02-16T05:57:09;14.07;;;1.58;;
81191;SDS011;70665;47.652;-2.730;2024-02-16T05:59:35;7.78;;;2.00;;
81191;SDS011;70665;47.652;-2.730;2024-02-16T06:02:01;7.53;;;1.77;;
81191;SDS011;70665;47.652;-2.730;2024-02-16T06:04:27;7.60;;;1.42;;
81191;SDS011;70665;47.652;-2.730;2024-02-16T06:06:52;5.93;;;1.75;;
81191;SDS011;70665;47.652;-2.730;2024-02-16T06:09:19;12.73;;;2.60;;
81191;SDS011;70665;47.652;-2.730;2024-02-16T06:11:44;7.63;;;2.03;;
81191;SDS011;70665;47.652;-2.730;2024-02-16T06:14:10;9.43;;;2.15;;
81191;SDS011;70665;47.652;-2.730;2024-02-16T06:16:36;10.90;;;1.77;;
81191;SDS011;70665;47.652;-2.730;2024-02-16T06:19:01;6.43;;;1.70;;
81191;SDS011;70665;47.652;-2.730;2024-02-16T06:21:27;4.40;;;1.48;;
81191;SDS011;70665;47.652;-2.730;2024-02-16T06:23:52;11.27;;;2.47;;
81191;SDS011;70665;47.652;-2.730;2024-02-16T06:26:18;8.93;;;2.03;;
81191;SDS011;70665;47.652;-2.730;2024-02-16T06:28:45;8.77;;;1.85;;
81191;SDS011;70665;47.652;-2.730;2024-02-16T06:31:11;10.30;;;1.92;;
81191;SDS011;70665;47.652;-2.730;2024-02-16T06:33:41;8.68;;;2.33;;
81191;SDS011;70665;47.652;-2.730;2024-02-16T06:36:06;7.13;;;1.80;;
81191;SDS011;70665;47.652;-2.730;2024-02-16T06:38:32;9.20;;;1.75;;
81191;SDS011;70665;47.652;-2.730;2024-02-16T06:40:58;8.98;;;1.23;;
81191;SDS011;70665;47.652;-2.730;2024-02-16T06:43:23;8.52;;;1.80;;
81191;SDS011;70665;47.652;-2.730;2024-02-16T06:45:49;8.65;;;1.92;;
81191;SDS011;70665;47.652;-2.730;2024-02-16T06:48:15;9.02;;;2.13;;
81191;SDS011;70665;47.652;-2.730;2024-02-16T06:50:41;12.55;;;3.17;;
81191;SDS011;70665;47.652;-2.730;2024-02-16T06:53:07;5.63;;;2.03;;
81191;SDS011;70665;47.652;-2.730;2024-02-16T06:55:32;11.70;;;1.70;;
81191;SDS011;70665;47.652;-2.730;2024-02-16T06:57:58;12.70;;;2.05;;
81191;SDS011;70665;47.652;-2.730;2024-02-16T07:00:24;10.82;;;1.65;;
81191;SDS011;70665;47.652;-2.730;2024-02-16T07:02:49;10.95;;;1.90;;
81191;SDS011;70665;47.652;-2.730;2024-02-16T07:05:15;15.98;;;2.20;;
81191;SDS011;70665;47.652;-2.730;2024-02-16T07:07:42;13.75;;;1.90;;
81191;SDS011;70665;47.652;-2.730;2024-02-16T07:10:08;9.38;;;2.55;;
81191;SDS011;70665;47.652;-2.730;2024-02-16T07:12:38;13.52;;;2.45;;
81191;SDS011;70665;47.652;-2.730;2024-02-16T07:15:04;13.05;;;2.28;;
81191;SDS011;70665;47.652;-2.730;2024-02-16T07:17:30;10.90;;;2.38;;
81191;SDS011;70665;47.652;-2.730;2024-02-16T07:19:56;7.45;;;1.98;;
81191;SDS011;70665;47.652;-2.730;2024-02-16T07:22:21;11.07;;;2.88;;
81191;SDS011;70665;47.652;-2.730;2024-02-16T07:24:47;9.25;;;2.15;;
81191;SDS011;70665;47.652;-2.730;2024-02-16T07:27:13;7.65;;;1.85;;
81191;SDS011;70665;47.652;-2.730;2024-02-16T07:29:39;14.13;;;2.50;;
81191;SDS011;70665;47.652;-2.730;2024-02-16T07:32:04;9.48;;;1.75;;
81191;SDS011;70665;47.652;-2.730;2024-02-16T07:34:30;7.88;;;1.85;;
81191;SDS011;70665;47.652;-2.730;2024-02-16T07:36:56;15.75;;;2.67;;
81191;SDS011;70665;47.652;-2.730;2024-02-16T07:39:22;7.38;;;1.88;;
81191;SDS011;70665;47.652;-2.730;2024-02-16T07:41:48;16.33;;;2.53;;
81191;SDS011;70665;47.652;-2.730;2024-02-16T07:44:14;11.07;;;2.10;;
81191;SDS011;70665;47.652;-2.730;2024-02-16T07:46:40;11.55;;;2.45;;
81191;SDS011;70665;47.652;-2.730;2024-02-16T07:49:06;11.27;;;2.05;;
81191;SDS011;70665;47.652;-2.730;2024-02-16T07:53:58;10.98;;;1.95;;
81191;SDS011;70665;47.652;-2.730;2024-02-16T07:56:24;10.60;;;2.55;;
81191;SDS011;70665;47.652;-2.730;2024-02-16T07:58:49;13.85;;;2.22;;
81191;SDS011;70665;47.652;-2.730;2024-02-16T08:01:15;11.95;;;2.58;;
81191;SDS011;70665;47.652;-2.730;2024-02-16T08:03:40;11.30;;;2.78;;
81191;SDS011;70665;47.652;-2.730;2024-02-16T08:06:06;11.85;;;2.80;;
81191;SDS011;70665;47.652;-2.730;2024-02-16T08:08:32;16.08;;;2.72;;
81191;SDS011;70665;47.652;-2.730;2024-02-16T08:10:58;7.07;;;2.55;;
81191;SDS011;70665;47.652;-2.730;2024-02-16T08:13:23;14.45;;;2.30;;
81191;SDS011;70665;47.652;-2.730;2024-02-16T08:15:49;9.70;;;2.92;;
81191;SDS011;70665;47.652;-2.730;2024-02-16T08:18:16;11.73;;;1.90;;
81191;SDS011;70665;47.652;-2.730;2024-02-16T08:20:42;10.02;;;2.30;;
81191;SDS011;70665;47.652;-2.730;2024-02-16T08:23:08;12.32;;;2.70;;
81191;SDS011;70665;47.652;-2.730;2024-02-16T08:25:34;15.32;;;2.60;;
81191;SDS011;70665;47.652;-2.730;2024-02-16T08:30:25;18.92;;;2.83;;
81191;SDS011;70665;47.652;-2.730;2024-02-16T08:35:18;12.35;;;2.33;;
81191;SDS011;70665;47.652;-2.730;2024-02-16T08:37:44;11.65;;;3.15;;
81191;SDS011;70665;47.652;-2.730;2024-02-16T08:40:12;16.13;;;2.63;;
81191;SDS011;70665;47.652;-2.730;2024-02-16T08:42:39;16.25;;;2.45;;
81191;SDS011;70665;47.652;-2.730;2024-02-16T08:45:07;12.85;;;2.15;;
81191;SDS011;70665;47.652;-2.730;2024-02-16T08:49:59;11.38;;;1.98;;
81191;SDS011;70665;47.652;-2.730;2024-02-16T08:52:24;10.15;;;3.05;;
81191;SDS011;70665;47.652;-2.730;2024-02-16T08:54:51;7.55;;;2.38;;
81191;SDS011;70665;47.652;-2.730;2024-02-16T08:57:16;17.88;;;2.90;;
81191;SDS011;70665;47.652;-2.730;2024-02-16T08:59:42;13.07;;;2.70;;
81191;SDS011;70665;47.652;-2.730;2024-02-16T09:02:09;10.05;;;2.42;;
81191;SDS011;70665;47.652;-2.730;2024-02-16T09:04:35;12.80;;;2.80;;
81191;SDS011;70665;47.652;-2.730;2024-02-16T09:07:01;10.77;;;2.20;;
81191;SDS011;70665;47.652;-2.730;2024-02-16T09:09:27;12.25;;;2.63;;
81191;SDS011;70665;47.652;-2.730;2024-02-16T09:11:53;14.23;;;2.40;;
81191;SDS011;70665;47.652;-2.730;2024-02-16T09:14:19;12.80;;;2.88;;
81191;SDS011;70665;47.652;-2.730;2024-02-16T09:16:44;10.98;;;2.08;;
81191;SDS011;70665;47.652;-2.730;2024-02-16T09:19:13;18.52;;;2.25;;
81191;SDS011;70665;47.652;-2.730;2024-02-16T09:21:38;15.95;;;2.47;;
81191;SDS011;70665;47.652;-2.730;2024-02-16T09:24:04;19.45;;;3.15;;
81191;SDS011;70665;47.652;-2.730;2024-02-16T09:26:35;13.70;;;2.05;;
81191;SDS011;70665;47.652;-2.730;2024-02-16T09:29:01;16.25;;;2.13;;
81191;SDS011;70665;47.652;-2.730;2024-02-16T09:31:27;16.13;;;2.45;;
81191;SDS011;70665;47.652;-2.730;2024-02-16T09:33:53;12.95;;;2.47;;
81191;SDS011;70665;47.652;-2.730;2024-02-16T09:36:18;16.80;;;2.45;;
81191;SDS011;70665;47.652;-2.730;2024-02-16T09:38:44;11.43;;;2.10;;
81191;SDS011;70665;47.652;-2.730;2024-02-16T09:41:10;15.77;;;2.10;;
81191;SDS011;70665;47.652;-2.730;2024-02-16T09:43:36;15.82;;;2.13;;
81191;SDS011;70665;47.652;-2.730;2024-02-16T09:46:04;14.10;;;3.05;;
81191;SDS011;70665;47.652;-2.730;2024-02-16T09:48:30;13.20;;;2.80;;
81191;SDS011;70665;47.652;-2.730;2024-02-16T09:50:56;14.95;;;2.80;;
81191;SDS011;70665;47.652;-2.730;2024-02-16T09:53:26;11.02;;;2.00;;
81191;SDS011;70665;47.652;-2.730;2024-02-16T09:55:52;12.10;;;1.90;;
81191;SDS011;70665;47.652;-2.730;2024-02-16T09:58:18;10.00;;;2.17;;
81191;SDS011;70665;47.652;-2.730;2024-02-16T10:03:27;14.75;;;1.90;;
81191;SDS011;70665;47.652;-2.730;2024-02-16T10:06:05;17.02;;;3.42;;
81191;SDS011;70665;47.652;-2.730;2024-02-16T10:08:32;12.50;;;1.92;;
81191;SDS011;70665;47.652;-2.730;2024-02-16T10:11:03;14.18;;;2.03;;
81191;SDS011;70665;47.652;-2.730;2024-02-16T10:13:29;15.98;;;2.70;;
81191;SDS011;70665;47.652;-2.730;2024-02-16T10:16:05;12.05;;;1.85;;
81191;SDS011;70665;47.652;-2.730;2024-02-16T10:18:34;11.00;;;1.85;;
81191;SDS011;70665;47.652;-2.730;2024-02-16T10:21:04;14.98;;;3.13;;
81191;SDS011;70665;47.652;-2.730;2024-02-16T10:23:29;13.20;;;2.00;;
81191;SDS011;70665;47.652;-2.730;2024-02-16T10:25:55;18.92;;;2.40;;
81191;SDS011;70665;47.652;-2.730;2024-02-16T10:28:24;9.32;;;2.00;;
81191;SDS011;70665;47.652;-2.730;2024-02-16T10:30:56;7.63;;;2.05;;
81191;SDS011;70665;47.652;-2.730;2024-02-16T10:33:26;13.98;;;2.50;;
81191;SDS011;70665;47.652;-2.730;2024-02-16T10:35:53;10.65;;;1.70;;
81191;SDS011;70665;47.652;-2.730;2024-02-16T10:38:25;10.88;;;2.00;;
81191;SDS011;70665;47.652;-2.730;2024-02-16T10:40:51;10.85;;;1.98;;
81191;SDS011;70665;47.652;-2.730;2024-02-16T10:43:18;19.27;;;2.20;;
81191;SDS011;70665;47.652;-2.730;2024-02-16T10:45:46;11.52;;;2.00;;
81191;SDS011;70665;47.652;-2.730;2024-02-16T10:48:17;7.82;;;1.75;;
81191;SDS011;70665;47.652;-2.730;2024-02-16T10:50:43;7.28;;;1.40;;
81191;SDS011;70665;47.652;-2.730;2024-02-16T10:55:46;13.70;;;1.92;;
81191;SDS011;70665;47.652;-2.730;2024-02-16T11:03:16;12.35;;;2.00;;
81191;SDS011;70665;47.652;-2.730;2024-02-16T11:05:42;9.40;;;2.42;;
81191;SDS011;70665;47.652;-2.730;2024-02-16T11:08:14;11.07;;;2.58;;
81191;SDS011;70665;47.652;-2.730;2024-02-16T11:10:41;10.02;;;1.73;;
81191;SDS011;70665;47.652;-2.730;2024-02-16T11:15:56;14.35;;;1.90;;
81191;SDS011;70665;47.652;-2.730;2024-02-16T11:18:23;12.38;;;2.42;;
81191;SDS011;70665;47.652;-2.730;2024-02-16T11:23:15;12.27;;;1.85;;
81191;SDS011;70665;47.652;-2.730;2024-02-16T11:25:49;10.20;;;1.60;;
81191;SDS011;70665;47.652;-2.730;2024-02-16T11:28:18;12.73;;;3.10;;
81191;SDS011;70665;47.652;-2.730;2024-02-16T11:30:45;13.38;;;2.10;;
81191;SDS011;70665;47.652;-2.730;2024-02-16T11:35:36;11.20;;;2.20;;
81191;SDS011;70665;47.652;-2.730;2024-02-16T11:40:28;11.40;;;1.55;;
81191;SDS011;70665;47.652;-2.730;2024-02-16T11:42:58;17.80;;;2.97;;
81191;SDS011;70665;47.652;-2.730;2024-02-16T11:45:25;10.77;;;2.10;;
81191;SDS011;70665;47.652;-2.730;2024-02-16T11:47:51;8.68;;;2.58;;
81191;SDS011;70665;47.652;-2.730;2024-02-16T11:50:27;9.32;;;1.67;;
81191;SDS011;70665;47.652;-2.730;2024-02-16T11:55:19;10.73;;;1.85;;
81191;SDS011;70665;47.652;-2.730;2024-02-16T11:57:45;7.95;;;1.67;;
81191;SDS011;70665;47.652;-2.730;2024-02-16T12:00:15;13.35;;;2.75;;
81191;SDS011;70665;47.652;-2.730;2024-02-16T12:02:41;10.05;;;1.95;;
81191;SDS011;70665;47.652;-2.730;2024-02-16T12:07:32;10.13;;;1.75;;
81191;SDS011;70665;47.652;-2.730;2024-02-16T12:10:02;9.65;;;1.73;;
81191;SDS011;70665;47.652;-2.730;2024-02-16T12:12:30;7.70;;;1.60;;
81191;SDS011;70665;47.652;-2.730;2024-02-16T12:14:56;9.10;;;1.70;;
81191;SDS011;70665;47.652;-2.730;2024-02-16T12:17:23;12.60;;;2.25;;
81191;SDS011;70665;47.652;-2.730;2024-02-16T12:22:18;12.73;;;2.22;;
81191;SDS011;70665;47.652;-2.730;2024-02-16T12:24:48;14.02;;;2.58;;
81191;SDS011;70665;47.652;-2.730;2024-02-16T12:27:15;11.45;;;1.75;;
81191;SDS011;70665;47.652;-2.730;2024-02-16T12:29:41;7.43;;;1.55;;
81191;SDS011;70665;47.652;-2.730;2024-02-16T12:34:34;10.55;;;2.03;;
81191;SDS011;70665;47.652;-2.730;2024-02-16T12:37:03;8.00;;;1.50;;
81191;SDS011;70665;47.652;-2.730;2024-02-16T12:39:35;11.85;;;1.40;;
81191;SDS011;70665;47.652;-2.730;2024-02-16T12:42:01;11.70;;;2.00;;
81191;SDS011;70665;47.652;-2.730;2024-02-16T12:44:27;8.18;;;1.60;;
81191;SDS011;70665;47.652;-2.730;2024-02-16T12:46:53;9.57;;;1.40;;
81191;SDS011;70665;47.652;-2.730;2024-02-16T12:51:47;7.25;;;1.33;;
81191;SDS011;70665;47.652;-2.730;2024-02-16T12:54:17;12.32;;;1.83;;
81191;SDS011;70665;47.652;-2.730;2024-02-16T12:56:45;11.43;;;1.77;;
81191;SDS011;70665;47.652;-2.730;2024-02-16T12:59:12;6.32;;;1.48;;
81191;SDS011;70665;47.652;-2.730;2024-02-16T13:04:03;11.68;;;1.83;;
81191;SDS011;70665;47.652;-2.730;2024-02-16T13:06:30;11.00;;;2.28;;
81191;SDS011;70665;47.652;-2.730;2024-02-16T13:11:21;17.25;;;2.15;;
81191;SDS011;70665;47.652;-2.730;2024-02-16T13:13:47;7.63;;;1.38;;
81191;SDS011;70665;47.652;-2.730;2024-02-16T13:16:13;11.82;;;1.80;;
81191;SDS011;70665;47.652;-2.730;2024-02-16T13:21:04;7.85;;;1.20;;
81191;SDS011;70665;47.652;-2.730;2024-02-16T13:25:56;10.10;;;1.88;;
81191;SDS011;70665;47.652;-2.730;2024-02-16T13:30:47;7.43;;;1.30;;
81191;SDS011;70665;47.652;-2.730;2024-02-16T13:33:12;15.77;;;2.00;;
81191;SDS011;70665;47.652;-2.730;2024-02-16T13:38:04;8.80;;;2.22;;
81191;SDS011;70665;47.652;-2.730;2024-02-16T13:42:55;9.73;;;2.17;;
81191;SDS011;70665;47.652;-2.730;2024-02-16T13:45:26;10.32;;;1.85;;
81191;SDS011;70665;47.652;-2.730;2024-02-16T13:48:11;10.27;;;1.60;;
81191;SDS011;70665;47.652;-2.730;2024-02-16T13:50:36;10.40;;;1.63;;
81191;SDS011;70665;47.652;-2.730;2024-02-16T13:53:02;9.70;;;2.08;;
81191;SDS011;70665;47.652;-2.730;2024-02-16T13:55:28;12.13;;;2.13;;
81191;SDS011;70665;47.652;-2.730;2024-02-16T13:57:53;12.25;;;2.83;;
81191;SDS011;70665;47.652;-2.730;2024-02-16T14:00:19;9.65;;;1.77;;
81191;SDS011;70665;47.652;-2.730;2024-02-16T14:02:44;6.75;;;1.67;;
81191;SDS011;70665;47.652;-2.730;2024-02-16T14:05:10;8.52;;;1.80;;
81191;SDS011;70665;47.652;-2.730;2024-02-16T14:07:36;11.85;;;2.00;;
81191;SDS011;70665;47.652;-2.730;2024-02-16T14:12:28;13.43;;;1.65;;
81191;SDS011;70665;47.652;-2.730;2024-02-16T14:17:19;10.45;;;1.83;;
81191;SDS011;70665;47.652;-2.730;2024-02-16T14:19:44;9.63;;;1.48;;
81191;SDS011;70665;47.652;-2.730;2024-02-16T14:22:10;15.18;;;1.95;;
81191;SDS011;70665;47.652;-2.730;2024-02-16T14:24:37;8.30;;;2.08;;
81191;SDS011;70665;47.652;-2.730;2024-02-16T14:29:28;9.43;;;2.20;;
81191;SDS011;70665;47.652;-2.730;2024-02-16T14:34:20;14.02;;;1.73;;
81191;SDS011;70665;47.652;-2.730;2024-02-16T14:39:12;11.35;;;2.45;;
81191;SDS011;70665;47.652;-2.730;2024-02-16T14:44:03;12.23;;;1.73;;
81191;SDS011;70665;47.652;-2.730;2024-02-16T14:48:54;9.45;;;2.08;;
81191;SDS011;70665;47.652;-2.730;2024-02-16T14:51:19;8.15;;;1.58;;
81191;SDS011;70665;47.652;-2.730;2024-02-16T14:53:45;10.38;;;1.73;;
81191;SDS011;70665;47.652;-2.730;2024-02-16T14:56:11;7.28;;;1.50;;
81191;SDS011;70665;47.652;-2.730;2024-02-16T14:58:36;9.40;;;2.30;;
81191;SDS011;70665;47.652;-2.730;2024-02-16T15:01:02;12.05;;;1.95;;
81191;SDS011;70665;47.652;-2.730;2024-02-16T15:03:29;10.43;;;1.60;;
81191;SDS011;70665;47.652;-2.730;2024-02-16T15:05:55;10.60;;;2.10;;
81191;SDS011;70665;47.652;-2.730;2024-02-16T15:08:21;13.45;;;1.70;;
81191;SDS011;70665;47.652;-2.730;2024-02-16T15:10:47;10.88;;;2.10;;
81191;SDS011;70665;47.652;-2.730;2024-02-16T15:13:13;9.70;;;2.20;;
81191;SDS011;70665;47.652;-2.730;2024-02-16T15:15:39;10.95;;;1.98;;
81191;SDS011;70665;47.652;-2.730;2024-02-16T15:18:04;10.18;;;1.98;;
81191;SDS011;70665;47.652;-2.730;2024-02-16T15:20:30;13.52;;;2.67;;
81191;SDS011;70665;47.652;-2.730;2024-02-16T15:22:56;6.85;;;1.83;;
81191;SDS011;70665;47.652;-2.730;2024-02-16T15:25:22;14.60;;;2.05;;
81191;SDS011;70665;47.652;-2.730;2024-02-16T15:27:49;11.45;;;1.70;;
81191;SDS011;70665;47.652;-2.730;2024-02-16T15:30:16;12.10;;;2.20;;
81191;SDS011;70665;47.652;-2.730;2024-02-16T15:32:42;13.18;;;2.50;;
81191;SDS011;70665;47.652;-2.730;2024-02-16T15:35:08;7.78;;;1.77;;
81191;SDS011;70665;47.652;-2.730;2024-02-16T15:37:34;14.38;;;2.45;;
81191;SDS011;70665;47.652;-2.730;2024-02-16T15:40:00;10.10;;;1.95;;
81191;SDS011;70665;47.652;-2.730;2024-02-16T15:42:27;6.07;;;1.63;;
81191;SDS011;70665;47.652;-2.730;2024-02-16T15:44:56;11.50;;;1.80;;
81191;SDS011;70665;47.652;-2.730;2024-02-16T15:47:22;8.80;;;1.60;;
81191;SDS011;70665;47.652;-2.730;2024-02-16T15:49:48;5.70;;;1.50;;
81191;SDS011;70665;47.652;-2.730;2024-02-16T15:52:14;6.45;;;1.35;;
81191;SDS011;70665;47.652;-2.730;2024-02-16T15:54:39;10.82;;;1.95;;
81191;SDS011;70665;47.652;-2.730;2024-02-16T15:57:05;6.95;;;1.30;;
81191;SDS011;70665;47.652;-2.730;2024-02-16T15:59:31;8.05;;;1.40;;
81191;SDS011;70665;47.652;-2.730;2024-02-16T16:01:56;7.38;;;1.50;;
81191;SDS011;70665;47.652;-2.730;2024-02-16T16:04:22;8.52;;;1.15;;
81191;SDS011;70665;47.652;-2.730;2024-02-16T16:06:47;12.13;;;1.70;;
81191;SDS011;70665;47.652;-2.730;2024-02-16T16:09:13;8.35;;;1.50;;
81191;SDS011;70665;47.652;-2.730;2024-02-16T16:11:38;5.38;;;1.38;;
81191;SDS011;70665;47.652;-2.730;2024-02-16T16:14:08;8.98;;;1.83;;